Time;durP1;ratioP1;P1;durP2;ratioP2;P2;SDS_P1;SDS_P2;PMS_P1;PMS_P2;Temp;Humidity;BMP_temperature;BMP_pressure;BME280_temperature;BME280_humidity;BME280_pressure;Samples;Min_cycle;Max_cycle;Signal;HPM_P1;HPM_P2
2023/10/06 00:02:26;;;;;;;12.65;4.07;;;10.30;99.90;;;;;;5014738;28;20022;-58
2023/10/06 00:04:52;;;;;;;15.98;4.53;;;10.30;99.90;;;;;;5015351;28;20116;-57
2023/10/06 00:07:20;;;;;;;9.40;4.32;;;10.20;99.90;;;;;;5013852;28;20087;-54
2023/10/06 00:09:46;;;;;;;11.77;5.05;;;10.10;99.90;;;;;;5014083;28;20041;-53
2023/10/06 00:12:13;;;;;;;12.48;4.15;;;10.10;99.90;;;;;;5012625;28;20483;-52
2023/10/06 00:14:39;;;;;;;9.82;4.20;;;10.10;99.90;;;;;;5011626;28;20051;-55
2023/10/06 00:17:15;;;;;;;16.42;5.13;;;10.10;99.90;;;;;;5012517;28;20049;-59
2023/10/06 00:19:41;;;;;;;12.43;4.97;;;10.20;99.90;;;;;;5008713;28;20038;-59
2023/10/06 00:24:41;;;;;;;12.80;4.93;;;10.20;99.90;;;;;;5010763;28;20029;-59
2023/10/06 00:27:13;;;;;;;8.95;4.53;;;10.20;99.90;;;;;;5014592;28;20064;-56
2023/10/06 00:29:44;;;;;;;16.30;5.72;;;10.20;99.90;;;;;;5009737;28;20041;-55
2023/10/06 00:32:22;;;;;;;18.30;5.43;;;10.20;99.90;;;;;;5013370;28;20056;-56
2023/10/06 00:35:14;;;;;;;14.30;4.85;;;10.20;99.90;;;;;;5012506;28;20487;-54
2023/10/06 00:37:41;;;;;;;13.68;5.20;;;10.20;99.90;;;;;;5017236;28;20227;-55
2023/10/06 00:40:19;;;;;;;12.82;4.72;;;10.20;99.90;;;;;;5017729;28;20025;-57
2023/10/06 00:43:00;;;;;;;12.27;4.88;;;10.30;99.90;;;;;;5014976;28;20030;-56
2023/10/06 00:45:25;;;;;;;15.93;5.07;;;10.30;99.90;;;;;;5010486;28;20144;-55
2023/10/06 00:47:55;;;;;;;15.27;5.35;;;10.30;99.90;;;;;;5017638;28;20644;-56
2023/10/06 00:50:24;;;;;;;12.63;5.32;;;10.30;99.90;;;;;;5020049;28;20021;-55
2023/10/06 00:52:51;;;;;;;12.55;4.97;;;10.30;99.90;;;;;;5015114;28;20030;-56
2023/10/06 00:55:18;;;;;;;13.57;5.38;;;10.30;99.90;;;;;;5018366;28;20029;-58
2023/10/06 00:57:53;;;;;;;10.05;5.00;;;10.30;99.90;;;;;;5012890;28;20563;-59
2023/10/06 01:00:22;;;;;;;9.68;4.35;;;10.40;99.90;;;;;;5020896;28;20022;-56
2023/10/06 01:02:51;;;;;;;10.75;5.20;;;10.40;99.90;;;;;;5016548;28;20113;-57
2023/10/06 01:05:18;;;;;;;8.68;4.50;;;10.40;99.90;;;;;;5022312;28;20035;-54
2023/10/06 01:07:46;;;;;;;10.70;4.47;;;10.40;99.90;;;;;;5022888;28;20109;-56
2023/10/06 01:10:17;;;;;;;11.60;5.32;;;10.40;99.90;;;;;;5019453;28;20037;-58
2023/10/06 01:12:50;;;;;;;9.63;5.10;;;10.30;99.90;;;;;;5028088;28;20507;-57
2023/10/06 01:15:20;;;;;;;16.52;5.60;;;10.30;99.90;;;;;;5022770;28;20087;-57
2023/10/06 01:17:47;;;;;;;19.17;6.13;;;10.30;99.90;;;;;;5023047;28;20091;-57
2023/10/06 01:20:28;;;;;;;8.18;4.68;;;10.30;99.90;;;;;;5022461;28;20609;-56
2023/10/06 01:22:56;;;;;;;17.38;5.18;;;10.30;99.90;;;;;;5020121;28;20030;-58
2023/10/06 01:25:23;;;;;;;10.68;3.88;;;10.30;99.90;;;;;;5023706;28;20147;-55
2023/10/06 01:27:50;;;;;;;16.23;4.97;;;10.30;99.90;;;;;;5021215;28;20441;-56
2023/10/06 01:32:46;;;;;;;10.75;4.13;;;10.30;99.90;;;;;;5021102;28;20079;-58
2023/10/06 01:35:13;;;;;;;14.93;5.20;;;10.20;99.90;;;;;;5025964;28;20018;-58
2023/10/06 01:37:47;;;;;;;15.20;4.80;;;10.10;99.90;;;;;;5018872;28;20071;-59
2023/10/06 01:42:48;;;;;;;9.70;4.75;;;10.10;99.90;;;;;;5023960;28;19970;-60
2023/10/06 01:45:14;;;;;;;8.35;4.85;;;10.20;99.90;;;;;;5021278;28;20454;-60
2023/10/06 01:47:40;;;;;;;13.25;3.97;;;10.10;99.90;;;;;;5020222;28;20463;-60
2023/10/06 01:50:06;;;;;;;20.50;4.72;;;10.10;99.90;;;;;;5020669;28;20480;-59
2023/10/06 01:52:32;;;;;;;12.40;5.05;;;10.10;99.90;;;;;;5022359;28;20041;-57
2023/10/06 01:55:01;;;;;;;12.98;5.45;;;10.10;99.90;;;;;;5024547;28;20029;-57
2023/10/06 01:57:26;;;;;;;15.75;5.18;;;10.10;99.90;;;;;;5017610;28;20029;-59
2023/10/06 01:59:52;;;;;;;10.77;5.10;;;10.00;99.90;;;;;;5022706;28;20056;-59
2023/10/06 02:02:23;;;;;;;15.93;4.57;;;10.10;99.90;;;;;;5027567;28;20017;-59
2023/10/06 02:04:49;;;;;;;15.27;5.80;;;10.00;99.90;;;;;;5021426;28;20045;-59
2023/10/06 02:07:15;;;;;;;21.48;5.07;;;10.00;99.90;;;;;;5029356;28;20025;-59
2023/10/06 02:09:40;;;;;;;8.52;4.70;;;9.90;99.90;;;;;;5016727;28;20025;-59
2023/10/06 02:12:06;;;;;;;12.50;5.30;;;9.90;99.90;;;;;;5024275;28;20545;-59
2023/10/06 02:14:32;;;;;;;9.40;5.07;;;9.80;99.90;;;;;;5019573;28;20026;-57
2023/10/06 02:17:04;;;;;;;12.77;4.95;;;9.90;99.90;;;;;;5026914;28;20445;-58
2023/10/06 02:19:32;;;;;;;15.13;5.18;;;9.90;99.90;;;;;;5019262;28;20018;-59
2023/10/06 02:21:58;;;;;;;9.05;4.53;;;9.80;99.90;;;;;;5025130;28;20068;-59
2023/10/06 02:24:23;;;;;;;17.25;5.28;;;9.90;99.90;;;;;;5016999;28;20472;-55
2023/10/06 02:26:57;;;;;;;15.90;4.90;;;9.90;99.90;;;;;;5027016;28;20499;-60
2023/10/06 02:29:23;;;;;;;10.47;5.13;;;9.90;99.90;;;;;;5022124;28;20017;-56
2023/10/06 02:32:00;;;;;;;14.98;5.32;;;9.90;99.90;;;;;;5024048;28;20065;-59
2023/10/06 02:34:29;;;;;;;15.02;4.80;;;9.90;99.90;;;;;;5022532;28;20048;-59
2023/10/06 02:37:00;;;;;;;10.48;4.50;;;10.00;99.90;;;;;;5023636;28;20033;-58
2023/10/06 02:39:33;;;;;;;15.82;5.00;;;10.00;99.90;;;;;;5030259;28;20423;-55
2023/10/06 02:42:08;;;;;;;11.27;4.25;;;9.90;99.90;;;;;;5018511;28;20030;-59
2023/10/06 02:44:38;;;;;;;14.70;4.53;;;9.90;99.90;;;;;;5020089;28;20084;-58
2023/10/06 02:47:09;;;;;;;12.75;4.63;;;10.00;99.90;;;;;;5018976;28;20519;-56
2023/10/06 02:49:37;;;;;;;7.80;4.80;;;10.00;99.90;;;;;;5024581;28;20496;-60
2023/10/06 02:52:13;;;;;;;14.18;4.68;;;10.00;99.90;;;;;;5020551;28;20022;-59
2023/10/06 02:54:45;;;;;;;12.77;5.13;;;10.00;99.90;;;;;;5027681;28;20461;-58
2023/10/06 02:57:11;;;;;;;11.65;4.70;;;10.10;99.90;;;;;;5016851;28;20112;-59
2023/10/06 02:59:36;;;;;;;16.65;4.72;;;10.10;99.90;;;;;;5025187;28;20449;-59
2023/10/06 03:02:15;;;;;;;11.15;4.18;;;10.10;99.90;;;;;;5017010;28;20029;-58
2023/10/06 03:04:43;;;;;;;22.50;5.07;;;10.10;99.90;;;;;;5023771;28;20017;-60
2023/10/06 03:07:14;;;;;;;19.33;5.57;;;10.00;99.90;;;;;;5019970;28;20486;-57
2023/10/06 03:09:47;;;;;;;10.27;4.78;;;9.90;99.90;;;;;;5023870;28;20022;-58
2023/10/06 03:14:39;;;;;;;10.63;4.25;;;9.90;99.90;;;;;;5026089;28;20479;-59
2023/10/06 03:17:10;;;;;;;18.35;4.60;;;9.80;99.90;;;;;;5021609;28;20021;-59
2023/10/06 03:19:40;;;;;;;11.20;4.15;;;9.80;99.90;;;;;;5025104;28;20022;-59
2023/10/06 03:22:13;;;;;;;17.10;5.50;;;9.70;99.90;;;;;;5022855;28;20079;-57
2023/10/06 03:24:58;;;;;;;13.88;4.32;;;9.70;99.90;;;;;;5021170;28;20018;-58
2023/10/06 03:27:23;;;;;;;8.05;5.13;;;9.60;99.90;;;;;;5022711;28;20025;-57
2023/10/06 03:29:55;;;;;;;12.57;5.15;;;9.60;99.90;;;;;;5021070;28;20402;-59
2023/10/06 03:32:32;;;;;;;16.83;6.57;;;9.60;99.90;;;;;;5022466;28;20476;-59
2023/10/06 03:37:51;;;;;;;13.55;5.30;;;9.60;99.90;;;;;;5022541;28;20455;-58
2023/10/06 03:41:11;;;;;;;11.75;5.20;;;9.60;99.90;;;;;;5022902;28;20368;-59
2023/10/06 03:43:08;;;;;;;17.27;4.82;;;9.60;99.90;;;;;;5021168;28;20064;-59
2023/10/06 03:45:34;;;;;;;13.85;5.18;;;9.60;99.90;;;;;;5025078;28;20013;-60
2023/10/06 03:48:12;;;;;;;13.48;5.38;;;9.60;99.90;;;;;;5016299;28;20056;-59
2023/10/06 03:50:40;;;;;;;16.38;5.35;;;9.50;99.90;;;;;;5028969;28;20435;-60
2023/10/06 03:53:11;;;;;;;11.02;4.88;;;9.50;99.90;;;;;;5022889;28;20013;-57
2023/10/06 03:55:44;;;;;;;11.00;5.63;;;9.50;99.90;;;;;;5015841;28;20034;-59
2023/10/06 03:58:12;;;;;;;15.75;5.03;;;9.50;99.90;;;;;;5018295;28;20096;-59
2023/10/06 04:00:39;;;;;;;19.30;5.25;;;9.60;99.90;;;;;;5011768;28;20029;-57
2023/10/06 04:03:17;;;;;;;12.00;5.40;;;9.50;99.90;;;;;;5014541;28;20404;-60
2023/10/06 04:05:50;;;;;;;13.50;5.35;;;9.50;99.90;;;;;;5025256;28;20037;-59
2023/10/06 04:08:23;;;;;;;20.08;6.22;;;9.50;99.90;;;;;;5015867;28;20488;-58
2023/10/06 04:10:54;;;;;;;12.98;4.97;;;9.40;99.90;;;;;;5021491;28;20499;-59
2023/10/06 04:13:20;;;;;;;16.05;5.50;;;9.40;99.90;;;;;;5015449;28;20097;-59
2023/10/06 04:15:50;;;;;;;12.20;5.28;;;9.40;99.90;;;;;;5025135;28;20567;-58
2023/10/06 04:18:21;;;;;;;13.30;4.93;;;9.30;99.90;;;;;;5018784;28;20022;-57
2023/10/06 04:20:46;;;;;;;11.07;5.10;;;9.30;99.90;;;;;;5023296;28;20089;-58
2023/10/06 04:23:13;;;;;;;9.00;4.72;;;9.30;99.90;;;;;;5011874;28;20022;-58
2023/10/06 04:25:40;;;;;;;10.75;4.40;;;9.30;99.90;;;;;;5020702;28;20076;-58
2023/10/06 04:28:11;;;;;;;18.92;5.40;;;9.30;99.90;;;;;;5020228;28;20101;-60
2023/10/06 04:30:43;;;;;;;13.57;4.95;;;9.30;99.90;;;;;;5019944;28;20041;-59
2023/10/06 04:33:10;;;;;;;9.95;4.97;;;9.30;99.90;;;;;;5016551;28;20026;-58
2023/10/06 04:35:40;;;;;;;10.65;5.65;;;9.40;99.90;;;;;;5019967;28;20020;-59
2023/10/06 04:38:12;;;;;;;12.30;5.85;;;9.40;99.90;;;;;;5022633;28;20017;-60
2023/10/06 04:40:41;;;;;;;17.05;5.82;;;9.40;99.90;;;;;;5017289;28;20510;-58
2023/10/06 04:43:07;;;;;;;16.73;6.45;;;9.40;99.90;;;;;;5022526;28;20108;-60
2023/10/06 04:45:33;;;;;;;27.10;6.43;;;9.40;99.90;;;;;;5017165;28;20100;-60
2023/10/06 04:48:00;;;;;;;14.95;5.95;;;9.50;99.90;;;;;;5024682;28;20116;-58
2023/10/06 04:50:27;;;;;;;13.48;5.82;;;9.50;99.90;;;;;;5016887;28;20014;-59
2023/10/06 04:52:54;;;;;;;15.52;5.65;;;9.50;99.90;;;;;;5015285;28;20032;-59
2023/10/06 04:55:20;;;;;;;12.23;5.53;;;9.60;99.90;;;;;;5018258;28;20017;-59
2023/10/06 04:57:45;;;;;;;15.07;6.55;;;9.60;99.90;;;;;;5021585;28;20036;-60
2023/10/06 05:00:21;;;;;;;11.25;5.65;;;9.60;99.90;;;;;;5022150;28;20033;-60
2023/10/06 05:02:47;;;;;;;11.93;5.22;;;9.60;99.90;;;;;;5018668;28;20030;-59
2023/10/06 05:05:20;;;;;;;12.57;5.43;;;9.60;99.90;;;;;;5015087;28;20484;-60
2023/10/06 05:07:53;;;;;;;15.73;5.55;;;9.60;99.90;;;;;;5021659;28;20033;-57
2023/10/06 05:10:25;;;;;;;17.35;5.93;;;9.60;99.90;;;;;;5018056;28;20030;-57
2023/10/06 05:12:52;;;;;;;10.23;5.32;;;9.60;99.90;;;;;;5021912;28;20403;-58
2023/10/06 05:15:26;;;;;;;11.57;6.10;;;9.60;99.90;;;;;;5026294;28;20017;-60
2023/10/06 05:17:58;;;;;;;19.50;5.50;;;9.60;99.90;;;;;;5024267;28;20041;-55
2023/10/06 05:20:31;;;;;;;15.32;5.45;;;9.60;99.90;;;;;;5024073;28;20208;-59
2023/10/06 05:23:05;;;;;;;12.75;5.25;;;9.50;99.90;;;;;;5017250;28;20024;-59
2023/10/06 05:25:31;;;;;;;9.98;5.25;;;9.50;99.90;;;;;;5014190;28;20495;-56
2023/10/06 05:27:59;;;;;;;17.48;5.05;;;9.50;99.90;;;;;;5019900;28;20414;-55
2023/10/06 05:30:29;;;;;;;14.18;5.80;;;9.50;99.90;;;;;;5017932;28;20048;-57
2023/10/06 05:32:59;;;;;;;15.13;5.78;;;9.50;99.90;;;;;;5016214;28;20121;-58
2023/10/06 05:35:26;;;;;;;12.55;5.10;;;9.40;99.90;;;;;;5020547;28;20059;-58
2023/10/06 05:37:53;;;;;;;10.88;4.90;;;9.40;99.90;;;;;;5023331;28;20084;-57
2023/10/06 05:40:20;;;;;;;18.40;6.10;;;9.30;99.90;;;;;;5015635;28;20021;-59
2023/10/06 05:42:49;;;;;;;13.23;5.32;;;9.40;99.90;;;;;;5017724;28;20013;-60
2023/10/06 05:45:18;;;;;;;12.02;5.72;;;9.40;99.90;;;;;;5020366;28;20022;-56
2023/10/06 05:47:45;;;;;;;14.45;5.60;;;9.40;99.90;;;;;;5023350;28;20030;-59
2023/10/06 05:50:11;;;;;;;14.13;5.82;;;9.40;99.90;;;;;;5026481;28;20100;-60
2023/10/06 05:52:38;;;;;;;11.00;5.18;;;9.40;99.90;;;;;;5022734;28;20053;-53
2023/10/06 05:55:09;;;;;;;15.23;5.43;;;9.40;99.90;;;;;;5028507;28;20392;-59
2023/10/06 05:57:43;;;;;;;12.68;5.95;;;9.40;99.90;;;;;;5019135;28;20052;-56
2023/10/06 06:00:18;;;;;;;12.07;5.80;;;9.40;99.90;;;;;;5024900;28;20060;-58
2023/10/06 06:02:47;;;;;;;12.57;6.15;;;9.50;99.90;;;;;;5027857;28;20021;-58
2023/10/06 06:05:13;;;;;;;15.75;5.68;;;9.50;99.90;;;;;;5026963;28;20041;-58
2023/10/06 06:07:38;;;;;;;11.18;5.65;;;9.50;99.90;;;;;;5024029;28;20026;-60
2023/10/06 06:10:04;;;;;;;15.25;5.88;;;9.50;99.90;;;;;;5025747;28;20100;-58
2023/10/06 06:12:30;;;;;;;11.80;5.97;;;9.60;99.90;;;;;;5020796;28;20033;-58
2023/10/06 06:14:55;;;;;;;16.73;6.00;;;9.50;99.90;;;;;;5024044;28;20029;-57
2023/10/06 06:17:21;;;;;;;12.30;5.25;;;9.60;99.90;;;;;;5023388;28;20605;-58
2023/10/06 06:19:47;;;;;;;13.50;5.43;;;9.60;99.90;;;;;;5025067;28;20079;-57
2023/10/06 06:22:13;;;;;;;14.07;5.15;;;9.60;99.90;;;;;;5028362;28;20018;-58
2023/10/06 06:24:39;;;;;;;16.02;5.18;;;9.60;99.90;;;;;;5022347;28;20109;-60
2023/10/06 06:27:06;;;;;;;14.50;5.43;;;9.70;99.90;;;;;;5022372;28;20101;-58
2023/10/06 06:29:32;;;;;;;12.30;5.35;;;9.70;99.90;;;;;;5020546;28;20026;-57
2023/10/06 06:31:57;;;;;;;17.48;5.43;;;9.70;99.90;;;;;;5020395;28;20365;-60
2023/10/06 06:34:23;;;;;;;14.43;6.13;;;9.80;99.90;;;;;;5014547;28;20029;-59
2023/10/06 06:36:48;;;;;;;14.98;5.50;;;9.80;99.90;;;;;;5027394;28;20100;-60
2023/10/06 06:39:14;;;;;;;14.98;5.85;;;9.80;99.90;;;;;;5023434;28;20022;-58
2023/10/06 06:41:39;;;;;;;13.30;6.28;;;9.90;99.90;;;;;;5020307;28;20025;-59
2023/10/06 06:44:05;;;;;;;15.85;5.93;;;10.00;99.90;;;;;;5020513;28;20392;-60
2023/10/06 06:46:31;;;;;;;14.50;5.85;;;10.00;99.90;;;;;;5022494;28;20042;-60
2023/10/06 06:48:56;;;;;;;15.90;6.15;;;10.10;99.90;;;;;;5018403;28;20025;-58
2023/10/06 06:51:28;;;;;;;17.75;6.47;;;10.10;99.90;;;;;;5022258;28;20036;-58
2023/10/06 06:53:57;;;;;;;13.68;6.05;;;10.20;99.90;;;;;;5025274;28;20037;-58
2023/10/06 06:56:24;;;;;;;18.02;6.35;;;10.30;99.90;;;;;;5025811;28;20033;-59
2023/10/06 06:58:51;;;;;;;11.80;5.97;;;10.30;99.90;;;;;;5018090;28;20395;-59
2023/10/06 07:01:17;;;;;;;13.32;5.93;;;10.40;99.90;;;;;;5023023;28;20048;-59
2023/10/06 07:03:43;;;;;;;15.27;6.10;;;10.40;99.90;;;;;;5021479;28;20033;-59
2023/10/06 07:06:16;;;;;;;23.70;6.93;;;10.50;99.90;;;;;;5022935;28;20033;-60
2023/10/06 07:08:43;;;;;;;21.75;7.10;;;10.60;99.90;;;;;;5021274;28;20740;-58
2023/10/06 07:11:10;;;;;;;24.92;7.53;;;10.70;99.90;;;;;;5024511;28;20053;-59
2023/10/06 07:13:36;;;;;;;20.50;7.05;;;10.80;99.90;;;;;;5018511;28;20108;-57
2023/10/06 07:16:05;;;;;;;19.13;7.45;;;10.90;99.90;;;;;;5019890;28;20025;-59
2023/10/06 07:18:31;;;;;;;20.13;7.45;;;11.00;99.90;;;;;;5020127;28;20025;-60
2023/10/06 07:20:56;;;;;;;27.25;7.68;;;11.20;99.90;;;;;;5015467;28;20026;-59
2023/10/06 07:23:22;;;;;;;21.55;8.25;;;11.30;99.90;;;;;;5029079;28;20384;-60
2023/10/06 07:25:47;;;;;;;18.40;8.25;;;11.50;99.90;;;;;;5019249;28;20120;-59
2023/10/06 07:28:13;;;;;;;27.73;7.75;;;11.60;99.90;;;;;;5014807;28;20072;-59
2023/10/06 07:30:39;;;;;;;18.55;7.28;;;11.70;99.90;;;;;;5021313;28;20494;-60
2023/10/06 07:33:05;;;;;;;22.85;9.73;;;11.90;99.90;;;;;;5021065;28;20025;-60
2023/10/06 07:35:47;;;;;;;17.85;8.35;;;12.00;99.90;;;;;;5018257;28;20076;-61
2023/10/06 07:38:13;;;;;;;19.52;7.43;;;12.10;99.90;;;;;;5021659;28;20515;-59
2023/10/06 07:40:42;;;;;;;18.90;6.82;;;12.30;99.90;;;;;;5023740;28;20022;-58
2023/10/06 07:43:10;;;;;;;19.40;6.55;;;12.40;99.90;;;;;;5028024;28;20407;-59
2023/10/06 07:45:36;;;;;;;13.93;6.55;;;12.50;99.90;;;;;;5020251;28;20018;-60
2023/10/06 07:48:08;;;;;;;12.90;6.18;;;12.50;99.90;;;;;;5018448;28;20029;-59
2023/10/06 07:50:34;;;;;;;14.98;5.90;;;12.60;99.90;;;;;;5021174;28;20394;-59
2023/10/06 07:53:02;;;;;;;12.90;5.78;;;12.70;99.90;;;;;;5028102;28;20034;-56
2023/10/06 07:55:28;;;;;;;17.25;6.90;;;12.80;99.90;;;;;;5022968;28;20052;-59
2023/10/06 07:57:54;;;;;;;14.55;5.63;;;12.90;99.90;;;;;;5021105;28;20029;-59
2023/10/06 08:00:27;;;;;;;14.32;5.20;;;12.90;99.90;;;;;;5020182;28;20029;-59
2023/10/06 08:02:54;;;;;;;18.20;4.88;;;13.00;99.90;;;;;;5019512;28;20044;-58
2023/10/06 08:05:20;;;;;;;17.70;5.32;;;13.10;99.90;;;;;;5017869;28;20033;-60
2023/10/06 08:07:45;;;;;;;16.00;4.82;;;13.10;99.90;;;;;;5019801;28;20057;-59
2023/10/06 08:10:15;;;;;;;19.55;5.40;;;13.20;99.90;;;;;;5026180;28;20518;-59
2023/10/06 08:12:43;;;;;;;14.27;4.50;;;13.20;99.90;;;;;;5022690;28;20033;-60
2023/10/06 08:15:09;;;;;;;20.33;4.70;;;13.30;99.90;;;;;;5019372;28;20051;-61
2023/10/06 08:17:38;;;;;;;14.43;3.97;;;13.40;99.90;;;;;;5022367;28;20030;-60
2023/10/06 08:20:08;;;;;;;19.63;4.80;;;13.50;99.90;;;;;;5025740;28;20026;-61
2023/10/06 08:22:34;;;;;;;10.75;4.10;;;13.60;99.90;;;;;;5022202;28;20044;-60
2023/10/06 08:25:05;;;;;;;14.05;4.70;;;13.70;99.90;;;;;;5017585;28;20509;-61
2023/10/06 08:27:32;;;;;;;7.72;3.70;;;13.80;99.90;;;;;;5019437;28;20564;-59
2023/10/06 08:29:57;;;;;;;12.02;4.32;;;13.80;99.90;;;;;;5020751;28;20026;-59
2023/10/06 08:32:24;;;;;;;12.68;4.40;;;13.80;99.90;;;;;;5017373;28;20431;-60
2023/10/06 08:34:50;;;;;;;13.30;3.90;;;13.90;99.90;;;;;;5017566;28;20487;-60
2023/10/06 08:37:16;;;;;;;12.10;3.45;;;13.90;99.90;;;;;;5021077;28;20037;-59
2023/10/06 08:39:44;;;;;;;12.82;4.00;;;14.00;99.90;;;;;;5016564;28;20038;-60
2023/10/06 08:42:12;;;;;;;12.70;4.30;;;14.10;99.90;;;;;;5026719;28;20103;-58
2023/10/06 08:44:41;;;;;;;16.60;4.20;;;14.20;99.90;;;;;;5019126;28;20484;-60
2023/10/06 08:47:12;;;;;;;14.48;4.45;;;14.30;99.90;;;;;;5021540;28;20411;-60
2023/10/06 08:49:40;;;;;;;14.50;3.80;;;14.50;99.90;;;;;;5019653;28;20022;-60
2023/10/06 08:52:09;;;;;;;13.38;3.85;;;14.60;99.90;;;;;;5020623;28;20072;-59
2023/10/06 08:54:34;;;;;;;14.77;3.88;;;14.80;99.90;;;;;;5025962;28;20423;-60
2023/10/06 08:57:00;;;;;;;12.30;3.72;;;14.90;99.90;;;;;;5017007;28;20029;-58
2023/10/06 08:59:26;;;;;;;10.45;3.65;;;15.10;99.90;;;;;;5021660;28;20021;-61
2023/10/06 09:01:51;;;;;;;11.20;3.20;;;15.20;99.90;;;;;;5017506;28;20650;-61
2023/10/06 09:04:18;;;;;;;11.48;3.17;;;15.30;99.90;;;;;;5023500;28;20026;-58
2023/10/06 09:07:07;;;;;;;10.20;3.35;;;15.40;99.90;;;;;;5022385;28;20473;-59
2023/10/06 09:09:33;;;;;;;14.25;3.47;;;15.50;99.90;;;;;;5022049;28;20096;-60
2023/10/06 09:11:58;;;;;;;14.23;3.38;;;15.60;99.90;;;;;;5027150;28;20163;-60
2023/10/06 09:14:25;;;;;;;12.43;3.30;;;15.70;99.90;;;;;;5022001;28;20108;-60
2023/10/06 09:16:51;;;;;;;8.05;3.00;;;15.90;99.90;;;;;;5017796;28;20179;-58
2023/10/06 09:19:18;;;;;;;10.20;3.22;;;15.90;99.90;;;;;;5022412;28;20022;-58
2023/10/06 09:22:10;;;;;;;10.43;2.78;;;16.00;99.90;;;;;;5017513;28;20026;-58
2023/10/06 09:24:36;;;;;;;9.60;3.30;;;16.10;99.90;;;;;;5023498;28;20030;-59
2023/10/06 09:27:19;;;;;;;9.50;2.75;;;16.30;99.90;;;;;;5030938;28;20040;-59
2023/10/06 09:29:45;;;;;;;11.00;2.88;;;16.50;99.90;;;;;;5029490;28;20029;-60
2023/10/06 09:32:20;;;;;;;11.82;2.83;;;16.70;99.90;;;;;;5025076;28;20397;-58
2023/10/06 09:34:46;;;;;;;16.88;3.20;;;16.80;99.90;;;;;;5022580;28;20026;-57
2023/10/06 09:37:18;;;;;;;11.20;3.03;;;17.00;99.90;;;;;;5027557;28;20431;-57
2023/10/06 09:39:45;;;;;;;7.32;2.40;;;17.10;99.90;;;;;;5022546;28;20030;-59
2023/10/06 09:42:14;;;;;;;12.40;3.15;;;17.30;99.90;;;;;;5019960;28;20029;-59
2023/10/06 09:44:41;;;;;;;8.98;2.55;;;17.40;99.90;;;;;;5026993;28;20101;-58
2023/10/06 09:47:08;;;;;;;10.38;2.40;;;17.50;99.90;;;;;;5025473;28;20410;-58
2023/10/06 09:49:37;;;;;;;9.27;2.50;;;17.60;99.90;;;;;;5022288;28;20562;-57
2023/10/06 09:52:03;;;;;;;8.93;2.42;;;17.70;99.90;;;;;;5027440;28;20032;-54
2023/10/06 09:54:30;;;;;;;12.00;2.90;;;17.70;99.90;;;;;;5026671;28;20033;-56
2023/10/06 09:56:57;;;;;;;8.82;2.33;;;17.80;99.90;;;;;;5020001;28;20049;-58
2023/10/06 09:59:24;;;;;;;9.85;2.78;;;17.90;99.90;;;;;;5019813;28;20049;-56
2023/10/06 10:01:51;;;;;;;11.25;2.90;;;18.00;99.90;;;;;;5024140;28;20079;-58
2023/10/06 10:04:18;;;;;;;11.45;2.63;;;18.10;99.90;;;;;;5021033;28;20022;-56
2023/10/06 10:06:44;;;;;;;7.85;2.13;;;18.20;99.90;;;;;;5024851;28;20084;-57
2023/10/06 10:09:16;;;;;;;10.00;2.90;;;18.30;99.90;;;;;;5030348;28;20119;-58
2023/10/06 10:12:02;;;;;;;8.88;2.33;;;18.40;99.90;;;;;;5024661;28;20030;-58
2023/10/06 10:14:53;;;;;;;21.10;8.43;;;18.50;99.90;;;;;;5024741;28;20060;-58
2023/10/06 10:17:43;;;;;;;14.13;2.83;;;18.60;99.90;;;;;;5023265;28;20033;-58
2023/10/06 10:20:12;;;;;;;9.25;2.58;;;18.70;99.90;;;;;;5028760;28;20030;-61
2023/10/06 10:22:40;;;;;;;10.80;2.58;;;18.60;99.90;;;;;;5024675;28;20028;-58
2023/10/06 10:25:08;;;;;;;12.23;2.55;;;18.80;99.90;;;;;;5029012;28;20025;-59
2023/10/06 10:27:37;;;;;;;8.23;2.65;;;18.90;99.90;;;;;;5024274;28;20219;-56
2023/10/06 10:30:13;;;;;;;7.10;2.13;;;18.80;99.90;;;;;;5016878;28;20499;-58
2023/10/06 10:32:45;;;;;;;7.30;2.17;;;18.90;99.90;;;;;;5025457;28;20495;-59
2023/10/06 10:35:13;;;;;;;6.22;2.08;;;18.80;99.90;;;;;;5018563;28;20026;-58
2023/10/06 10:38:02;;;;;;;13.85;2.42;;;18.70;99.90;;;;;;5023316;28;20030;-51
2023/10/06 10:40:29;;;;;;;8.45;2.42;;;18.70;99.90;;;;;;5018464;28;20040;-58
2023/10/06 10:43:09;;;;;;;10.50;2.28;;;18.80;99.90;;;;;;5023769;28;20018;-58
2023/10/06 10:45:44;;;;;;;8.45;2.35;;;18.90;99.90;;;;;;5021038;28;20021;-59
2023/10/06 10:48:13;;;;;;;9.93;2.55;;;19.10;99.90;;;;;;5024050;28;20085;-57
2023/10/06 10:50:55;;;;;;;14.38;2.83;;;19.30;99.90;;;;;;5024829;28;20029;-59
2023/10/06 10:53:21;;;;;;;5.43;2.30;;;19.60;99.90;;;;;;5028842;28;20033;-59
2023/10/06 10:55:48;;;;;;;7.45;2.78;;;19.80;99.90;;;;;;5013784;28;20034;-59
2023/10/06 10:58:44;;;;;;;8.48;2.95;;;19.80;99.90;;;;;;5020160;28;20503;-55
2023/10/06 11:01:23;;;;;;;12.57;2.63;;;19.80;99.90;;;;;;5017591;28;20029;-59
2023/10/06 11:04:21;;;;;;;10.80;3.00;;;19.70;99.90;;;;;;5023953;28;20037;-56
2023/10/06 11:06:49;;;;;;;6.53;2.58;;;19.70;99.90;;;;;;5025662;28;20527;-58
2023/10/06 11:09:41;;;;;;;9.05;2.53;;;19.60;99.90;;;;;;5023205;28;20400;-56
2023/10/06 11:12:20;;;;;;;9.23;2.70;;;19.80;99.90;;;;;;5023550;28;20388;-57
2023/10/06 11:14:46;;;;;;;8.55;2.90;;;19.70;99.90;;;;;;5025830;28;20036;-57
2023/10/06 11:17:12;;;;;;;10.93;2.78;;;20.00;99.90;;;;;;5017921;28;20038;-55
2023/10/06 11:19:39;;;;;;;11.38;2.70;;;20.00;99.90;;;;;;5012218;28;20029;-56
2023/10/06 11:22:19;;;;;;;11.77;2.67;;;20.20;99.90;;;;;;5026041;28;20569;-59
2023/10/06 11:24:49;;;;;;;12.32;2.80;;;20.70;99.90;;;;;;5021774;28;20038;-59
2023/10/06 11:27:23;;;;;;;15.43;3.28;;;20.60;99.90;;;;;;5023308;28;20542;-58
2023/10/06 11:29:52;;;;;;;9.40;2.63;;;20.80;99.90;;;;;;5022760;28;20038;-58
2023/10/06 11:32:21;;;;;;;12.38;2.60;;;20.70;99.90;;;;;;5018030;28;20069;-58
2023/10/06 11:34:51;;;;;;;10.70;2.50;;;20.60;99.90;;;;;;5024026;28;20036;-60
2023/10/06 11:37:24;;;;;;;8.27;2.25;;;20.50;99.90;;;;;;5032136;28;20496;-57
2023/10/06 11:39:53;;;;;;;18.92;3.17;;;20.60;99.90;;;;;;5025367;28;20040;-59
2023/10/06 11:42:24;;;;;;;11.00;2.50;;;20.40;99.90;;;;;;5026264;28;20033;-58
2023/10/06 11:44:54;;;;;;;9.68;2.88;;;20.90;99.90;;;;;;5025930;28;20084;-59
2023/10/06 11:47:21;;;;;;;6.22;2.35;;;21.30;99.90;;;;;;5020540;28;20040;-59
2023/10/06 11:49:58;;;;;;;11.48;3.05;;;21.70;99.90;;;;;;5027532;28;20558;-59
2023/10/06 11:52:24;;;;;;;10.57;2.47;;;21.40;99.90;;;;;;5022212;28;20025;-60
2023/10/06 11:54:51;;;;;;;13.32;3.58;;;21.40;99.90;;;;;;5025420;28;20582;-59
2023/10/06 11:57:19;;;;;;;9.13;2.90;;;21.40;99.90;;;;;;5023294;28;20033;-56
2023/10/06 11:59:51;;;;;;;15.85;2.53;;;21.70;99.90;;;;;;5021731;28;20040;-60
2023/10/06 12:02:17;;;;;;;11.20;2.80;;;22.10;99.90;;;;;;5023087;28;20484;-60
2023/10/06 12:04:43;;;;;;;7.05;2.55;;;21.40;99.90;;;;;;5021192;28;20061;-59
2023/10/06 12:07:24;;;;;;;11.32;3.08;;;21.50;99.90;;;;;;5027034;28;20040;-58
2023/10/06 12:09:50;;;;;;;9.50;2.20;;;21.80;99.90;;;;;;5026292;28;20034;-58
2023/10/06 12:12:17;;;;;;;10.50;2.45;;;22.00;99.90;;;;;;5014442;28;20018;-59
2023/10/06 12:14:46;;;;;;;9.68;3.05;;;22.20;99.90;;;;;;5026022;28;20071;-56
2023/10/06 12:17:13;;;;;;;5.53;2.25;;;22.20;99.90;;;;;;5017957;28;20036;-55
2023/10/06 12:19:42;;;;;;;6.68;2.60;;;22.10;99.90;;;;;;5021606;28;20101;-54
2023/10/06 12:22:07;;;;;;;16.02;3.08;;;22.10;99.90;;;;;;5018888;28;20028;-58
2023/10/06 12:24:33;;;;;;;11.73;3.03;;;22.20;99.90;;;;;;5024497;28;20033;-59
2023/10/06 12:26:58;;;;;;;8.10;2.53;;;22.20;99.90;;;;;;5017052;28;20037;-58
2023/10/06 12:29:24;;;;;;;8.38;2.50;;;22.40;99.90;;;;;;5020460;28;20503;-59
2023/10/06 12:31:50;;;;;;;7.05;2.78;;;22.10;99.90;;;;;;5011295;28;20034;-59
2023/10/06 12:34:15;;;;;;;9.40;2.45;;;22.30;99.90;;;;;;5019295;28;20021;-60
2023/10/06 12:36:48;;;;;;;8.82;2.97;;;22.50;99.90;;;;;;5021577;28;20033;-56
2023/10/06 12:39:30;;;;;;;6.47;2.10;;;22.50;99.90;;;;;;5028190;28;20018;-58
2023/10/06 12:41:55;;;;;;;9.80;3.05;;;22.20;99.90;;;;;;5027383;28;20022;-60
2023/10/06 12:44:22;;;;;;;10.20;2.38;;;22.20;99.90;;;;;;5032162;28;20026;-60
2023/10/06 12:46:48;;;;;;;10.52;2.95;;;22.30;99.90;;;;;;5020819;28;20403;-56
2023/10/06 12:49:18;;;;;;;7.22;2.10;;;22.40;99.90;;;;;;5029834;28;20030;-59
2023/10/06 12:51:44;;;;;;;11.25;3.10;;;22.80;99.90;;;;;;5020382;28;20030;-58
2023/10/06 12:54:09;;;;;;;7.28;2.75;;;22.70;99.90;;;;;;5030055;28;20531;-60
2023/10/06 12:56:35;;;;;;;8.23;2.72;;;22.30;99.90;;;;;;5031793;28;20022;-57
2023/10/06 12:59:01;;;;;;;8.05;1.92;;;21.80;99.90;;;;;;5027611;28;20119;-58
2023/10/06 13:01:30;;;;;;;12.43;2.40;;;22.10;99.90;;;;;;5018660;28;20487;-57
2023/10/06 13:03:56;;;;;;;8.57;2.15;;;22.50;99.90;;;;;;5027713;28;20121;-56
2023/10/06 13:06:22;;;;;;;5.80;1.90;;;22.80;99.90;;;;;;5024260;28;20499;-56
2023/10/06 13:08:49;;;;;;;9.27;2.30;;;22.90;99.90;;;;;;5030360;28;20032;-57